sensor_id;sensor_type;location;lat;lon;timestamp;P1;durP1;ratioP1;P2;durP2;ratioP2
71211;SDS011;58957;37.742;-0.742;2023-04-24T00:02:11;4.18;;;1.88;;
71211;SDS011;58957;37.742;-0.742;2023-04-24T00:04:38;4.00;;;2.25;;
71211;SDS011;58957;37.742;-0.742;2023-04-24T00:07:07;8.63;;;2.13;;
71211;SDS011;58957;37.742;-0.742;2023-04-24T00:09:35;3.42;;;2.13;;
71211;SDS011;58957;37.742;-0.742;2023-04-24T00:12:02;13.38;;;2.22;;
71211;SDS011;58957;37.742;-0.742;2023-04-24T00:14:30;4.45;;;2.03;;
71211;SDS011;58957;37.742;-0.742;2023-04-24T00:16:57;5.60;;;1.88;;
71211;SDS011;58957;37.742;-0.742;2023-04-24T00:19:25;8.93;;;2.78;;
71211;SDS011;58957;37.742;-0.742;2023-04-24T00:21:52;4.45;;;1.60;;
71211;SDS011;58957;37.742;-0.742;2023-04-24T00:24:20;5.40;;;1.88;;
71211;SDS011;58957;37.742;-0.742;2023-04-24T00:26:48;5.97;;;2.00;;
71211;SDS011;58957;37.742;-0.742;2023-04-24T00:29:15;5.57;;;1.73;;
71211;SDS011;58957;37.742;-0.742;2023-04-24T00:31:42;5.93;;;1.77;;
71211;SDS011;58957;37.742;-0.742;2023-04-24T00:34:09;6.97;;;1.80;;
71211;SDS011;58957;37.742;-0.742;2023-04-24T00:36:36;4.88;;;1.90;;
71211;SDS011;58957;37.742;-0.742;2023-04-24T00:39:04;4.15;;;2.20;;
71211;SDS011;58957;37.742;-0.742;2023-04-24T00:41:35;7.10;;;1.60;;
71211;SDS011;58957;37.742;-0.742;2023-04-24T00:44:02;6.28;;;1.88;;
71211;SDS011;58957;37.742;-0.742;2023-04-24T00:46:29;8.35;;;1.83;;
71211;SDS011;58957;37.742;-0.742;2023-04-24T00:48:59;6.03;;;1.60;;
71211;SDS011;58957;37.742;-0.742;2023-04-24T00:51:26;3.35;;;1.45;;
71211;SDS011;58957;37.742;-0.742;2023-04-24T00:53:55;5.65;;;1.70;;
71211;SDS011;58957;37.742;-0.742;2023-04-24T00:56:23;3.38;;;1.73;;
71211;SDS011;58957;37.742;-0.742;2023-04-24T00:58:52;8.50;;;2.72;;
71211;SDS011;58957;37.742;-0.742;2023-04-24T01:01:21;7.15;;;2.30;;
71211;SDS011;58957;37.742;-0.742;2023-04-24T01:03:49;3.42;;;1.90;;
71211;SDS011;58957;37.742;-0.742;2023-04-24T01:06:18;7.28;;;2.55;;
71211;SDS011;58957;37.742;-0.742;2023-04-24T01:08:46;4.50;;;2.03;;
71211;SDS011;58957;37.742;-0.742;2023-04-24T01:11:14;4.60;;;1.92;;
71211;SDS011;58957;37.742;-0.742;2023-04-24T01:13:41;4.07;;;2.22;;
71211;SDS011;58957;37.742;-0.742;2023-04-24T01:16:10;6.25;;;2.40;;
71211;SDS011;58957;37.742;-0.742;2023-04-24T01:18:37;6.13;;;2.03;;
71211;SDS011;58957;37.742;-0.742;2023-04-24T01:21:04;7.32;;;2.70;;
71211;SDS011;58957;37.742;-0.742;2023-04-24T01:23:36;8.73;;;2.97;;
71211;SDS011;58957;37.742;-0.742;2023-04-24T01:26:03;7.32;;;2.70;;
71211;SDS011;58957;37.742;-0.742;2023-04-24T01:28:31;5.18;;;2.83;;
71211;SDS011;58957;37.742;-0.742;2023-04-24T01:30:58;7.22;;;2.55;;
71211;SDS011;58957;37.742;-0.742;2023-04-24T01:33:25;6.90;;;2.65;;
71211;SDS011;58957;37.742;-0.742;2023-04-24T01:35:53;6.80;;;2.72;;
71211;SDS011;58957;37.742;-0.742;2023-04-24T01:38:20;6.82;;;2.90;;
71211;SDS011;58957;37.742;-0.742;2023-04-24T01:40:49;4.30;;;2.60;;
71211;SDS011;58957;37.742;-0.742;2023-04-24T01:43:17;7.68;;;2.90;;
71211;SDS011;58957;37.742;-0.742;2023-04-24T01:45:44;9.35;;;3.05;;
71211;SDS011;58957;37.742;-0.742;2023-04-24T01:48:12;8.00;;;2.55;;
71211;SDS011;58957;37.742;-0.742;2023-04-24T01:50:40;9.52;;;3.10;;
71211;SDS011;58957;37.742;-0.742;2023-04-24T01:53:07;9.70;;;3.00;;
71211;SDS011;58957;37.742;-0.742;2023-04-24T01:55:35;5.00;;;2.70;;
71211;SDS011;58957;37.742;-0.742;2023-04-24T01:58:04;7.75;;;2.83;;
71211;SDS011;58957;37.742;-0.742;2023-04-24T02:00:31;7.75;;;2.65;;
71211;SDS011;58957;37.742;-0.742;2023-04-24T02:02:59;4.65;;;2.47;;
71211;SDS011;58957;37.742;-0.742;2023-04-24T02:05:29;9.43;;;2.60;;
71211;SDS011;58957;37.742;-0.742;2023-04-24T02:07:56;9.77;;;3.00;;
71211;SDS011;58957;37.742;-0.742;2023-04-24T02:10:24;7.80;;;2.85;;
71211;SDS011;58957;37.742;-0.742;2023-04-24T02:12:51;7.47;;;3.20;;
71211;SDS011;58957;37.742;-0.742;2023-04-24T02:15:21;9.05;;;3.08;;
71211;SDS011;58957;37.742;-0.742;2023-04-24T02:17:48;6.70;;;2.92;;
71211;SDS011;58957;37.742;-0.742;2023-04-24T02:20:16;3.72;;;2.08;;
71211;SDS011;58957;37.742;-0.742;2023-04-24T02:22:44;11.43;;;3.22;;
71211;SDS011;58957;37.742;-0.742;2023-04-24T02:25:11;8.02;;;3.20;;
71211;SDS011;58957;37.742;-0.742;2023-04-24T02:27:39;9.52;;;3.83;;
71211;SDS011;58957;37.742;-0.742;2023-04-24T02:30:07;11.40;;;4.30;;
71211;SDS011;58957;37.742;-0.742;2023-04-24T02:32:36;6.97;;;3.20;;
71211;SDS011;58957;37.742;-0.742;2023-04-24T02:35:04;5.88;;;3.08;;
71211;SDS011;58957;37.742;-0.742;2023-04-24T02:37:31;9.00;;;3.70;;
71211;SDS011;58957;37.742;-0.742;2023-04-24T02:39:59;7.95;;;4.45;;
71211;SDS011;58957;37.742;-0.742;2023-04-24T02:42:26;7.57;;;4.85;;
71211;SDS011;58957;37.742;-0.742;2023-04-24T02:44:54;11.15;;;5.53;;
71211;SDS011;58957;37.742;-0.742;2023-04-24T02:47:21;15.25;;;5.63;;
71211;SDS011;58957;37.742;-0.742;2023-04-24T02:49:50;12.90;;;6.55;;
71211;SDS011;58957;37.742;-0.742;2023-04-24T02:52:18;12.98;;;6.60;;
71211;SDS011;58957;37.742;-0.742;2023-04-24T02:54:45;13.02;;;7.13;;
71211;SDS011;58957;37.742;-0.742;2023-04-24T02:57:13;13.68;;;7.32;;
71211;SDS011;58957;37.742;-0.742;2023-04-24T02:59:41;13.65;;;7.18;;
71211;SDS011;58957;37.742;-0.742;2023-04-24T03:02:08;19.98;;;7.45;;
71211;SDS011;58957;37.742;-0.742;2023-04-24T03:04:36;14.05;;;6.13;;
71211;SDS011;58957;37.742;-0.742;2023-04-24T03:07:06;15.38;;;6.47;;
71211;SDS011;58957;37.742;-0.742;2023-04-24T03:09:34;14.05;;;6.45;;
71211;SDS011;58957;37.742;-0.742;2023-04-24T03:12:03;10.77;;;6.53;;
71211;SDS011;58957;37.742;-0.742;2023-04-24T03:14:30;17.25;;;7.20;;
71211;SDS011;58957;37.742;-0.742;2023-04-24T03:16:58;16.23;;;7.18;;
71211;SDS011;58957;37.742;-0.742;2023-04-24T03:19:25;13.35;;;7.07;;
71211;SDS011;58957;37.742;-0.742;2023-04-24T03:21:53;13.82;;;7.68;;
71211;SDS011;58957;37.742;-0.742;2023-04-24T03:24:24;15.45;;;6.85;;
71211;SDS011;58957;37.742;-0.742;2023-04-24T03:26:53;14.93;;;8.23;;
71211;SDS011;58957;37.742;-0.742;2023-04-24T03:29:22;14.38;;;7.65;;
71211;SDS011;58957;37.742;-0.742;2023-04-24T03:31:49;16.27;;;8.32;;
71211;SDS011;58957;37.742;-0.742;2023-04-24T03:34:16;17.00;;;7.93;;
71211;SDS011;58957;37.742;-0.742;2023-04-24T03:36:44;13.07;;;6.90;;
71211;SDS011;58957;37.742;-0.742;2023-04-24T03:39:13;14.35;;;7.43;;
71211;SDS011;58957;37.742;-0.742;2023-04-24T03:41:42;15.05;;;9.27;;
71211;SDS011;58957;37.742;-0.742;2023-04-24T03:44:10;16.58;;;9.38;;
71211;SDS011;58957;37.742;-0.742;2023-04-24T03:46:38;18.55;;;8.88;;
71211;SDS011;58957;37.742;-0.742;2023-04-24T03:49:05;17.02;;;9.05;;
71211;SDS011;58957;37.742;-0.742;2023-04-24T03:51:32;20.38;;;9.57;;
71211;SDS011;58957;37.742;-0.742;2023-04-24T03:54:00;20.58;;;9.23;;
71211;SDS011;58957;37.742;-0.742;2023-04-24T03:56:28;23.70;;;9.45;;
71211;SDS011;58957;37.742;-0.742;2023-04-24T03:58:57;21.38;;;10.73;;
71211;SDS011;58957;37.742;-0.742;2023-04-24T04:01:25;18.30;;;10.05;;
71211;SDS011;58957;37.742;-0.742;2023-04-24T04:03:53;21.08;;;10.70;;
71211;SDS011;58957;37.742;-0.742;2023-04-24T04:06:21;17.25;;;9.20;;
71211;SDS011;58957;37.742;-0.742;2023-04-24T04:08:48;18.17;;;9.35;;
71211;SDS011;58957;37.742;-0.742;2023-04-24T04:11:18;16.75;;;8.20;;
71211;SDS011;58957;37.742;-0.742;2023-04-24T04:13:46;15.18;;;7.60;;
71211;SDS011;58957;37.742;-0.742;2023-04-24T04:16:15;25.00;;;8.65;;
71211;SDS011;58957;37.742;-0.742;2023-04-24T04:18:43;13.95;;;7.78;;
71211;SDS011;58957;37.742;-0.742;2023-04-24T04:21:10;11.85;;;6.18;;
71211;SDS011;58957;37.742;-0.742;2023-04-24T04:23:38;9.35;;;4.65;;
71211;SDS011;58957;37.742;-0.742;2023-04-24T04:26:06;6.70;;;3.45;;
71211;SDS011;58957;37.742;-0.742;2023-04-24T04:28:34;5.18;;;3.42;;
71211;SDS011;58957;37.742;-0.742;2023-04-24T04:31:03;10.18;;;2.92;;
71211;SDS011;58957;37.742;-0.742;2023-04-24T04:33:31;4.38;;;3.00;;
71211;SDS011;58957;37.742;-0.742;2023-04-24T04:35:59;6.75;;;2.80;;
71211;SDS011;58957;37.742;-0.742;2023-04-24T04:38:27;6.15;;;2.60;;
71211;SDS011;58957;37.742;-0.742;2023-04-24T04:40:55;8.52;;;3.90;;
71211;SDS011;58957;37.742;-0.742;2023-04-24T04:43:23;9.85;;;3.70;;
71211;SDS011;58957;37.742;-0.742;2023-04-24T04:45:51;8.15;;;4.03;;
71211;SDS011;58957;37.742;-0.742;2023-04-24T04:48:19;12.20;;;4.22;;
71211;SDS011;58957;37.742;-0.742;2023-04-24T04:50:48;7.55;;;3.33;;
71211;SDS011;58957;37.742;-0.742;2023-04-24T04:53:16;7.45;;;3.55;;
71211;SDS011;58957;37.742;-0.742;2023-04-24T04:55:44;5.60;;;3.47;;
71211;SDS011;58957;37.742;-0.742;2023-04-24T04:58:12;3.90;;;2.65;;
71211;SDS011;58957;37.742;-0.742;2023-04-24T05:00:39;6.53;;;2.63;;
71211;SDS011;58957;37.742;-0.742;2023-04-24T05:03:07;13.10;;;3.45;;
71211;SDS011;58957;37.742;-0.742;2023-04-24T05:05:35;7.68;;;2.65;;
71211;SDS011;58957;37.742;-0.742;2023-04-24T05:08:07;8.73;;;3.42;;
71211;SDS011;58957;37.742;-0.742;2023-04-24T05:10:34;4.50;;;2.30;;
71211;SDS011;58957;37.742;-0.742;2023-04-24T05:13:02;5.45;;;2.50;;
71211;SDS011;58957;37.742;-0.742;2023-04-24T05:15:29;5.90;;;2.15;;
71211;SDS011;58957;37.742;-0.742;2023-04-24T05:17:57;5.30;;;2.50;;
71211;SDS011;58957;37.742;-0.742;2023-04-24T05:20:24;6.93;;;2.95;;
71211;SDS011;58957;37.742;-0.742;2023-04-24T05:22:52;7.68;;;2.60;;
71211;SDS011;58957;37.742;-0.742;2023-04-24T05:25:21;9.75;;;2.88;;
71211;SDS011;58957;37.742;-0.742;2023-04-24T05:27:49;9.57;;;2.60;;
71211;SDS011;58957;37.742;-0.742;2023-04-24T05:30:16;7.43;;;3.00;;
71211;SDS011;58957;37.742;-0.742;2023-04-24T05:32:44;12.15;;;3.15;;
71211;SDS011;58957;37.742;-0.742;2023-04-24T05:35:11;8.10;;;3.70;;
71211;SDS011;58957;37.742;-0.742;2023-04-24T05:37:39;8.75;;;3.53;;
71211;SDS011;58957;37.742;-0.742;2023-04-24T05:40:07;7.30;;;3.88;;
71211;SDS011;58957;37.742;-0.742;2023-04-24T05:42:36;6.80;;;3.70;;
71211;SDS011;58957;37.742;-0.742;2023-04-24T05:45:04;7.35;;;3.65;;
71211;SDS011;58957;37.742;-0.742;2023-04-24T05:47:31;8.65;;;3.75;;
71211;SDS011;58957;37.742;-0.742;2023-04-24T05:49:59;7.85;;;4.20;;
71211;SDS011;58957;37.742;-0.742;2023-04-24T05:52:26;7.50;;;3.83;;
71211;SDS011;58957;37.742;-0.742;2023-04-24T05:54:54;8.55;;;4.10;;
71211;SDS011;58957;37.742;-0.742;2023-04-24T05:57:21;8.98;;;4.15;;
71211;SDS011;58957;37.742;-0.742;2023-04-24T05:59:50;10.68;;;4.47;;
71211;SDS011;58957;37.742;-0.742;2023-04-24T06:02:18;13.45;;;3.88;;
71211;SDS011;58957;37.742;-0.742;2023-04-24T06:04:45;10.20;;;3.35;;
71211;SDS011;58957;37.742;-0.742;2023-04-24T06:07:13;6.78;;;3.38;;
71211;SDS011;58957;37.742;-0.742;2023-04-24T06:09:40;8.88;;;3.05;;
71211;SDS011;58957;37.742;-0.742;2023-04-24T06:12:08;4.72;;;2.30;;
71211;SDS011;58957;37.742;-0.742;2023-04-24T06:14:36;8.10;;;2.97;;
71211;SDS011;58957;37.742;-0.742;2023-04-24T06:17:05;9.02;;;3.63;;
71211;SDS011;58957;37.742;-0.742;2023-04-24T06:19:32;9.65;;;3.13;;
71211;SDS011;58957;37.742;-0.742;2023-04-24T06:22:00;8.90;;;3.10;;
71211;SDS011;58957;37.742;-0.742;2023-04-24T06:24:27;6.50;;;2.97;;
71211;SDS011;58957;37.742;-0.742;2023-04-24T06:26:55;13.20;;;2.65;;
71211;SDS011;58957;37.742;-0.742;2023-04-24T06:29:24;4.57;;;2.63;;
71211;SDS011;58957;37.742;-0.742;2023-04-24T06:31:52;5.13;;;2.63;;
71211;SDS011;58957;37.742;-0.742;2023-04-24T06:34:21;5.03;;;2.38;;
71211;SDS011;58957;37.742;-0.742;2023-04-24T06:36:48;7.70;;;2.90;;
71211;SDS011;58957;37.742;-0.742;2023-04-24T06:39:16;6.70;;;2.47;;
71211;SDS011;58957;37.742;-0.742;2023-04-24T06:41:43;5.30;;;2.58;;
71211;SDS011;58957;37.742;-0.742;2023-04-24T06:44:11;7.15;;;2.90;;
71211;SDS011;58957;37.742;-0.742;2023-04-24T06:46:39;5.53;;;3.05;;
71211;SDS011;58957;37.742;-0.742;2023-04-24T06:49:07;9.88;;;2.70;;
71211;SDS011;58957;37.742;-0.742;2023-04-24T06:51:35;7.18;;;2.72;;
71211;SDS011;58957;37.742;-0.742;2023-04-24T06:54:02;7.90;;;2.75;;
71211;SDS011;58957;37.742;-0.742;2023-04-24T06:56:30;7.30;;;2.58;;
71211;SDS011;58957;37.742;-0.742;2023-04-24T06:58:59;6.45;;;2.90;;
71211;SDS011;58957;37.742;-0.742;2023-04-24T07:01:26;9.70;;;2.65;;
71211;SDS011;58957;37.742;-0.742;2023-04-24T07:03:54;5.65;;;2.75;;
71211;SDS011;58957;37.742;-0.742;2023-04-24T07:06:23;8.68;;;2.42;;
71211;SDS011;58957;37.742;-0.742;2023-04-24T07:08:52;8.07;;;2.67;;
71211;SDS011;58957;37.742;-0.742;2023-04-24T07:11:19;10.45;;;2.65;;
71211;SDS011;58957;37.742;-0.742;2023-04-24T07:13:47;7.68;;;2.38;;
71211;SDS011;58957;37.742;-0.742;2023-04-24T07:16:15;3.50;;;1.90;;
71211;SDS011;58957;37.742;-0.742;2023-04-24T07:18:42;4.78;;;1.80;;
71211;SDS011;58957;37.742;-0.742;2023-04-24T07:21:10;3.60;;;1.92;;
71211;SDS011;58957;37.742;-0.742;2023-04-24T07:23:38;8.27;;;2.05;;
71211;SDS011;58957;37.742;-0.742;2023-04-24T07:26:07;8.13;;;2.50;;
71211;SDS011;58957;37.742;-0.742;2023-04-24T07:28:35;6.28;;;2.03;;
71211;SDS011;58957;37.742;-0.742;2023-04-24T07:31:03;6.35;;;1.95;;
71211;SDS011;58957;37.742;-0.742;2023-04-24T07:33:30;4.88;;;2.20;;
71211;SDS011;58957;37.742;-0.742;2023-04-24T07:35:58;4.00;;;2.25;;
71211;SDS011;58957;37.742;-0.742;2023-04-24T07:38:25;4.97;;;2.47;;
71211;SDS011;58957;37.742;-0.742;2023-04-24T07:40:53;10.27;;;2.88;;
71211;SDS011;58957;37.742;-0.742;2023-04-24T07:43:22;6.57;;;2.60;;
71211;SDS011;58957;37.742;-0.742;2023-04-24T07:45:50;6.60;;;2.55;;
71211;SDS011;58957;37.742;-0.742;2023-04-24T07:48:18;5.35;;;2.38;;
71211;SDS011;58957;37.742;-0.742;2023-04-24T07:50:47;5.45;;;2.33;;
71211;SDS011;58957;37.742;-0.742;2023-04-24T07:53:15;7.85;;;2.78;;
71211;SDS011;58957;37.742;-0.742;2023-04-24T07:55:42;6.20;;;2.70;;
71211;SDS011;58957;37.742;-0.742;2023-04-24T07:58:10;13.05;;;2.65;;
71211;SDS011;58957;37.742;-0.742;2023-04-24T08:00:39;12.82;;;2.58;;
71211;SDS011;58957;37.742;-0.742;2023-04-24T08:03:06;3.50;;;2.50;;
71211;SDS011;58957;37.742;-0.742;2023-04-24T08:05:34;5.90;;;2.30;;
71211;SDS011;58957;37.742;-0.742;2023-04-24T08:08:01;6.55;;;2.38;;
71211;SDS011;58957;37.742;-0.742;2023-04-24T08:10:29;6.18;;;2.50;;
71211;SDS011;58957;37.742;-0.742;2023-04-24T08:12:56;9.88;;;2.15;;
71211;SDS011;58957;37.742;-0.742;2023-04-24T08:15:24;8.95;;;2.00;;
71211;SDS011;58957;37.742;-0.742;2023-04-24T08:17:53;7.07;;;2.35;;
71211;SDS011;58957;37.742;-0.742;2023-04-24T08:22:27;8.32;;;2.42;;
71211;SDS011;58957;37.742;-0.742;2023-04-24T08:24:55;9.32;;;2.28;;
71211;SDS011;58957;37.742;-0.742;2023-04-24T08:27:23;4.78;;;1.73;;
71211;SDS011;58957;37.742;-0.742;2023-04-24T08:29:50;8.50;;;2.08;;
71211;SDS011;58957;37.742;-0.742;2023-04-24T08:32:18;4.53;;;1.80;;
71211;SDS011;58957;37.742;-0.742;2023-04-24T08:34:45;3.25;;;1.63;;
71211;SDS011;58957;37.742;-0.742;2023-04-24T08:37:12;5.82;;;2.22;;
71211;SDS011;58957;37.742;-0.742;2023-04-24T08:39:41;3.65;;;1.70;;
71211;SDS011;58957;37.742;-0.742;2023-04-24T08:42:09;4.78;;;2.65;;
71211;SDS011;58957;37.742;-0.742;2023-04-24T08:44:38;4.32;;;1.95;;
71211;SDS011;58957;37.742;-0.742;2023-04-24T08:47:06;4.28;;;1.90;;
71211;SDS011;58957;37.742;-0.742;2023-04-24T08:49:34;4.95;;;2.10;;
71211;SDS011;58957;37.742;-0.742;2023-04-24T08:52:02;5.50;;;2.13;;
71211;SDS011;58957;37.742;-0.742;2023-04-24T08:54:30;7.95;;;2.03;;
71211;SDS011;58957;37.742;-0.742;2023-04-24T08:57:00;6.82;;;1.73;;
71211;SDS011;58957;37.742;-0.742;2023-04-24T08:59:28;4.82;;;2.10;;
71211;SDS011;58957;37.742;-0.742;2023-04-24T09:01:56;7.28;;;1.80;;
71211;SDS011;58957;37.742;-0.742;2023-04-24T09:04:24;7.05;;;1.80;;
71211;SDS011;58957;37.742;-0.742;2023-04-24T09:06:52;5.07;;;2.03;;
71211;SDS011;58957;37.742;-0.742;2023-04-24T09:09:22;4.10;;;1.85;;
71211;SDS011;58957;37.742;-0.742;2023-04-24T09:11:50;4.05;;;1.63;;
71211;SDS011;58957;37.742;-0.742;2023-04-24T09:14:20;4.97;;;2.60;;
71211;SDS011;58957;37.742;-0.742;2023-04-24T09:16:49;8.13;;;2.00;;
71211;SDS011;58957;37.742;-0.742;2023-04-24T09:19:16;5.05;;;1.92;;
71211;SDS011;58957;37.742;-0.742;2023-04-24T09:21:45;8.23;;;2.83;;
71211;SDS011;58957;37.742;-0.742;2023-04-24T09:24:14;6.70;;;2.05;;
71211;SDS011;58957;37.742;-0.742;2023-04-24T09:26:43;4.95;;;2.00;;
71211;SDS011;58957;37.742;-0.742;2023-04-24T09:29:13;5.68;;;1.83;;
71211;SDS011;58957;37.742;-0.742;2023-04-24T09:31:43;8.35;;;2.88;;
71211;SDS011;58957;37.742;-0.742;2023-04-24T09:34:11;5.60;;;2.10;;
71211;SDS011;58957;37.742;-0.742;2023-04-24T09:36:40;5.20;;;2.20;;
71211;SDS011;58957;37.742;-0.742;2023-04-24T09:39:08;10.05;;;2.88;;
71211;SDS011;58957;37.742;-0.742;2023-04-24T09:41:43;17.98;;;2.70;;
71211;SDS011;58957;37.742;-0.742;2023-04-24T09:44:11;9.35;;;2.45;;
71211;SDS011;58957;37.742;-0.742;2023-04-24T09:46:39;13.27;;;2.63;;
71211;SDS011;58957;37.742;-0.742;2023-04-24T09:49:12;33.78;;;3.45;;
71211;SDS011;58957;37.742;-0.742;2023-04-24T09:51:40;10.15;;;2.30;;
71211;SDS011;58957;37.742;-0.742;2023-04-24T09:54:12;10.80;;;2.08;;
71211;SDS011;58957;37.742;-0.742;2023-04-24T09:56:41;7.53;;;2.47;;
71211;SDS011;58957;37.742;-0.742;2023-04-24T09:59:10;10.63;;;2.47;;
71211;SDS011;58957;37.742;-0.742;2023-04-24T10:01:37;9.30;;;2.58;;
71211;SDS011;58957;37.742;-0.742;2023-04-24T10:04:16;9.20;;;2.35;;
71211;SDS011;58957;37.742;-0.742;2023-04-24T10:06:44;14.00;;;2.60;;
71211;SDS011;58957;37.742;-0.742;2023-04-24T10:09:12;9.40;;;2.20;;
71211;SDS011;58957;37.742;-0.742;2023-04-24T10:11:41;6.50;;;2.10;;
71211;SDS011;58957;37.742;-0.742;2023-04-24T10:14:09;6.00;;;2.10;;
71211;SDS011;58957;37.742;-0.742;2023-04-24T10:16:37;9.52;;;2.50;;
71211;SDS011;58957;37.742;-0.742;2023-04-24T10:19:05;8.52;;;1.80;;
71211;SDS011;58957;37.742;-0.742;2023-04-24T10:21:34;49.60;;;6.20;;
71211;SDS011;58957;37.742;-0.742;2023-04-24T10:24:04;6.07;;;1.90;;
71211;SDS011;58957;37.742;-0.742;2023-04-24T10:26:32;8.73;;;2.78;;
71211;SDS011;58957;37.742;-0.742;2023-04-24T10:29:00;8.57;;;2.40;;
71211;SDS011;58957;37.742;-0.742;2023-04-24T10:31:29;8.68;;;2.15;;
71211;SDS011;58957;37.742;-0.742;2023-04-24T10:33:58;6.32;;;2.40;;
71211;SDS011;58957;37.742;-0.742;2023-04-24T10:36:25;5.47;;;2.33;;
71211;SDS011;58957;37.742;-0.742;2023-04-24T10:38:58;7.97;;;2.42;;
71211;SDS011;58957;37.742;-0.742;2023-04-24T10:41:27;8.98;;;2.45;;
71211;SDS011;58957;37.742;-0.742;2023-04-24T10:44:04;8.35;;;2.40;;
71211;SDS011;58957;37.742;-0.742;2023-04-24T10:46:32;6.85;;;1.98;;
71211;SDS011;58957;37.742;-0.742;2023-04-24T10:48:59;10.15;;;2.50;;
71211;SDS011;58957;37.742;-0.742;2023-04-24T10:54:25;9.77;;;2.30;;
71211;SDS011;58957;37.742;-0.742;2023-04-24T10:56:53;5.10;;;1.77;;
71211;SDS011;58957;37.742;-0.742;2023-04-24T10:59:24;7.55;;;2.38;;
71211;SDS011;58957;37.742;-0.742;2023-04-24T11:01:52;10.50;;;2.97;;
71211;SDS011;58957;37.742;-0.742;2023-04-24T11:04:28;5.22;;;2.28;;
71211;SDS011;58957;37.742;-0.742;2023-04-24T11:06:56;9.18;;;2.13;;
71211;SDS011;58957;37.742;-0.742;2023-04-24T11:09:27;5.90;;;2.45;;
71211;SDS011;58957;37.742;-0.742;2023-04-24T11:12:02;15.15;;;3.00;;
71211;SDS011;58957;37.742;-0.742;2023-04-24T11:14:35;7.72;;;2.13;;
71211;SDS011;58957;37.742;-0.742;2023-04-24T11:17:30;6.70;;;2.38;;
71211;SDS011;58957;37.742;-0.742;2023-04-24T11:20:02;6.47;;;2.22;;
71211;SDS011;58957;37.742;-0.742;2023-04-24T11:22:32;7.10;;;2.20;;
71211;SDS011;58957;37.742;-0.742;2023-04-24T11:25:02;9.07;;;2.53;;
71211;SDS011;58957;37.742;-0.742;2023-04-24T11:27:30;8.18;;;2.53;;
71211;SDS011;58957;37.742;-0.742;2023-04-24T11:29:59;8.93;;;2.40;;
71211;SDS011;58957;37.742;-0.742;2023-04-24T11:32:27;9.30;;;2.90;;
71211;SDS011;58957;37.742;-0.742;2023-04-24T11:34:55;11.70;;;2.65;;
71211;SDS011;58957;37.742;-0.742;2023-04-24T11:37:23;8.45;;;2.20;;
71211;SDS011;58957;37.742;-0.742;2023-04-24T11:39:54;9.43;;;2.55;;
71211;SDS011;58957;37.742;-0.742;2023-04-24T11:42:23;7.97;;;2.40;;
71211;SDS011;58957;37.742;-0.742;2023-04-24T11:44:52;9.38;;;2.42;;
71211;SDS011;58957;37.742;-0.742;2023-04-24T11:47:19;8.05;;;2.00;;
71211;SDS011;58957;37.742;-0.742;2023-04-24T11:49:49;7.47;;;2.05;;
71211;SDS011;58957;37.742;-0.742;2023-04-24T11:52:17;7.75;;;2.40;;
71211;SDS011;58957;37.742;-0.742;2023-04-24T11:54:47;7.35;;;2.28;;
71211;SDS011;58957;37.742;-0.742;2023-04-24T11:57:16;7.18;;;2.22;;
71211;SDS011;58957;37.742;-0.742;2023-04-24T11:59:46;8.13;;;1.95;;
71211;SDS011;58957;37.742;-0.742;2023-04-24T12:02:20;8.57;;;2.50;;
71211;SDS011;58957;37.742;-0.742;2023-04-24T12:04:50;7.13;;;2.58;;
71211;SDS011;58957;37.742;-0.742;2023-04-24T12:07:17;8.15;;;2.88;;
71211;SDS011;58957;37.742;-0.742;2023-04-24T12:09:45;12.80;;;2.78;;
71211;SDS011;58957;37.742;-0.742;2023-04-24T12:12:14;7.70;;;2.25;;
71211;SDS011;58957;37.742;-0.742;2023-04-24T12:14:44;8.15;;;2.30;;
71211;SDS011;58957;37.742;-0.742;2023-04-24T12:17:15;6.30;;;2.25;;
71211;SDS011;58957;37.742;-0.742;2023-04-24T12:19:45;7.60;;;2.33;;
71211;SDS011;58957;37.742;-0.742;2023-04-24T12:22:14;6.07;;;2.00;;
71211;SDS011;58957;37.742;-0.742;2023-04-24T12:27:31;48.80;;;10.50;;
71211;SDS011;58957;37.742;-0.742;2023-04-24T12:30:00;59.88;;;13.90;;
71211;SDS011;58957;37.742;-0.742;2023-04-24T12:32:29;44.40;;;10.98;;
71211;SDS011;58957;37.742;-0.742;2023-04-24T12:34:56;14.48;;;3.72;;
71211;SDS011;58957;37.742;-0.742;2023-04-24T12:37:24;28.88;;;6.07;;
71211;SDS011;58957;37.742;-0.742;2023-04-24T12:39:59;32.42;;;9.32;;
71211;SDS011;58957;37.742;-0.742;2023-04-24T12:42:27;17.00;;;4.38;;
71211;SDS011;58957;37.742;-0.742;2023-04-24T12:44:58;7.22;;;2.22;;
71211;SDS011;58957;37.742;-0.742;2023-04-24T12:47:29;39.10;;;9.38;;
71211;SDS011;58957;37.742;-0.742;2023-04-24T12:49:57;15.88;;;4.55;;
71211;SDS011;58957;37.742;-0.742;2023-04-24T12:52:25;10.13;;;2.80;;
71211;SDS011;58957;37.742;-0.742;2023-04-24T12:54:53;11.02;;;3.53;;
71211;SDS011;58957;37.742;-0.742;2023-04-24T12:57:21;9.25;;;2.70;;
71211;SDS011;58957;37.742;-0.742;2023-04-24T12:59:48;8.52;;;2.70;;
71211;SDS011;58957;37.742;-0.742;2023-04-24T13:02:17;9.40;;;3.65;;
71211;SDS011;58957;37.742;-0.742;2023-04-24T13:04:44;15.82;;;4.78;;
71211;SDS011;58957;37.742;-0.742;2023-04-24T13:07:12;10.95;;;3.88;;
71211;SDS011;58957;37.742;-0.742;2023-04-24T13:09:40;10.75;;;3.58;;
71211;SDS011;58957;37.742;-0.742;2023-04-24T13:12:07;11.52;;;2.83;;
71211;SDS011;58957;37.742;-0.742;2023-04-24T13:14:35;15.75;;;5.70;;
71211;SDS011;58957;37.742;-0.742;2023-04-24T13:17:03;11.15;;;3.85;;
71211;SDS011;58957;37.742;-0.742;2023-04-24T13:19:36;13.38;;;4.00;;
71211;SDS011;58957;37.742;-0.742;2023-04-24T13:22:04;10.85;;;3.15;;
71211;SDS011;58957;37.742;-0.742;2023-04-24T13:24:31;11.93;;;3.78;;
71211;SDS011;58957;37.742;-0.742;2023-04-24T13:26:59;9.38;;;3.05;;
71211;SDS011;58957;37.742;-0.742;2023-04-24T13:29:27;11.63;;;3.00;;
71211;SDS011;58957;37.742;-0.742;2023-04-24T13:31:55;9.52;;;2.90;;
71211;SDS011;58957;37.742;-0.742;2023-04-24T13:34:23;12.65;;;3.67;;
71211;SDS011;58957;37.742;-0.742;2023-04-24T13:36:52;9.98;;;3.17;;
71211;SDS011;58957;37.742;-0.742;2023-04-24T13:39:20;10.85;;;3.05;;
71211;SDS011;58957;37.742;-0.742;2023-04-24T13:41:47;7.28;;;2.63;;
71211;SDS011;58957;37.742;-0.742;2023-04-24T13:44:15;7.50;;;2.28;;
71211;SDS011;58957;37.742;-0.742;2023-04-24T13:49:26;8.48;;;3.55;;
71211;SDS011;58957;37.742;-0.742;2023-04-24T13:51:54;13.60;;;3.78;;
71211;SDS011;58957;37.742;-0.742;2023-04-24T13:54:22;9.10;;;3.05;;
71211;SDS011;58957;37.742;-0.742;2023-04-24T13:56:50;13.32;;;2.95;;
71211;SDS011;58957;37.742;-0.742;2023-04-24T13:59:18;11.25;;;3.20;;
71211;SDS011;58957;37.742;-0.742;2023-04-24T14:01:46;10.00;;;2.90;;
71211;SDS011;58957;37.742;-0.742;2023-04-24T14:04:14;13.48;;;3.20;;
71211;SDS011;58957;37.742;-0.742;2023-04-24T14:06:43;11.88;;;2.97;;
71211;SDS011;58957;37.742;-0.742;2023-04-24T14:09:10;12.13;;;3.10;;
71211;SDS011;58957;37.742;-0.742;2023-04-24T14:11:38;12.80;;;2.92;;
71211;SDS011;58957;37.742;-0.742;2023-04-24T14:14:05;7.80;;;2.83;;
71211;SDS011;58957;37.742;-0.742;2023-04-24T14:16:32;8.38;;;3.10;;
71211;SDS011;58957;37.742;-0.742;2023-04-24T14:19:00;7.20;;;3.00;;
71211;SDS011;58957;37.742;-0.742;2023-04-24T14:21:27;6.88;;;2.40;;
71211;SDS011;58957;37.742;-0.742;2023-04-24T14:23:56;7.70;;;2.80;;
71211;SDS011;58957;37.742;-0.742;2023-04-24T14:26:23;15.10;;;3.00;;
71211;SDS011;58957;37.742;-0.742;2023-04-24T14:28:51;14.73;;;3.08;;
71211;SDS011;58957;37.742;-0.742;2023-04-24T14:31:20;8.70;;;2.40;;
71211;SDS011;58957;37.742;-0.742;2023-04-24T14:33:47;10.90;;;2.83;;
71211;SDS011;58957;37.742;-0.742;2023-04-24T14:36:14;9.00;;;3.00;;
71211;SDS011;58957;37.742;-0.742;2023-04-24T14:38:41;11.60;;;3.22;;
71211;SDS011;58957;37.742;-0.742;2023-04-24T14:41:10;9.13;;;2.95;;
71211;SDS011;58957;37.742;-0.742;2023-04-24T14:43:37;10.68;;;3.35;;
71211;SDS011;58957;37.742;-0.742;2023-04-24T14:46:05;9.48;;;2.92;;
71211;SDS011;58957;37.742;-0.742;2023-04-24T14:48:32;9.80;;;2.92;;